createdAt,value
2024-03-02T00:01:45.875Z,6.60
2024-03-02T00:04:47.852Z,6.50
2024-03-02T00:08:00.057Z,6.50
2024-03-02T00:11:03.133Z,6.40
2024-03-02T00:14:05.123Z,6.40
2024-03-02T00:17:11.007Z,6.40
2024-03-02T00:20:24.440Z,6.20
2024-03-02T00:23:31.131Z,5.90
2024-03-02T00:26:33.203Z,5.60
2024-03-02T00:29:36.521Z,5.70
2024-03-02T00:32:38.513Z,5.50
2024-03-02T00:35:40.622Z,5.30
2024-03-02T00:38:50.930Z,5.20
2024-03-02T00:41:52.959Z,5.30
2024-03-02T00:44:54.980Z,5.40
2024-03-02T00:47:57.337Z,5.50
2024-03-02T00:50:59.411Z,5.60
2024-03-02T00:54:07.882Z,5.60
2024-03-02T00:57:12.285Z,5.60
2024-03-02T01:00:15.066Z,5.70
2024-03-02T01:03:17.135Z,5.80
2024-03-02T01:06:19.845Z,5.80
2024-03-02T01:09:21.929Z,5.80
2024-03-02T01:12:23.977Z,5.80
2024-03-02T01:15:26.006Z,5.80
2024-03-02T01:18:28.302Z,5.60
2024-03-02T01:21:32.591Z,5.50
2024-03-02T01:24:34.681Z,5.10
2024-03-02T01:27:36.864Z,5.10
2024-03-02T01:30:38.943Z,5.10
2024-03-02T01:33:40.968Z,5.30
2024-03-02T01:36:45.450Z,5.00
2024-03-02T01:39:47.451Z,4.70
2024-03-02T01:42:49.474Z,4.70
2024-03-02T01:45:51.575Z,5.10
2024-03-02T01:48:53.663Z,5.20
2024-03-02T01:51:56.042Z,5.20
2024-03-02T01:54:58.275Z,4.90
2024-03-02T01:58:00.579Z,4.60
2024-03-02T02:01:03.012Z,4.90
2024-03-02T02:04:05.160Z,4.70
2024-03-02T02:07:07.507Z,4.80
2024-03-02T02:10:10.248Z,4.30
2024-03-02T02:13:12.322Z,4.30
2024-03-02T02:16:14.358Z,4.30
2024-03-02T02:19:16.361Z,4.30
2024-03-02T02:22:18.489Z,4.50
2024-03-02T02:25:20.505Z,4.60
2024-03-02T02:28:22.504Z,4.40
2024-03-02T02:31:24.601Z,4.40
2024-03-02T02:34:26.529Z,4.00
2024-03-02T02:37:28.639Z,4.10
2024-03-02T02:40:30.946Z,4.40
2024-03-02T02:43:33.008Z,4.70
2024-03-02T02:46:35.023Z,4.70
2024-03-02T02:49:37.005Z,4.80
2024-03-02T02:52:41.609Z,4.80
2024-03-02T02:55:43.802Z,4.50
2024-03-02T02:58:45.785Z,4.20
2024-03-02T03:01:48.014Z,4.50
2024-03-02T03:04:50.089Z,4.60
2024-03-02T03:07:52.092Z,4.50
2024-03-02T03:10:54.273Z,4.30
2024-03-02T03:13:56.304Z,4.40
2024-03-02T03:16:58.316Z,4.40
2024-03-02T03:20:00.360Z,4.20
2024-03-02T03:23:02.394Z,4.00
2024-03-02T03:26:04.513Z,3.90
2024-03-02T03:29:06.529Z,3.90
2024-03-02T03:32:08.650Z,4.00
2024-03-02T03:35:10.802Z,4.00
2024-03-02T03:38:12.946Z,4.20
2024-03-02T03:41:14.971Z,4.30
2024-03-02T03:44:17.043Z,4.40
2024-03-02T03:47:19.321Z,4.40
2024-03-02T03:50:21.531Z,4.40
2024-03-02T03:53:23.824Z,4.40
2024-03-02T03:56:25.822Z,4.50
2024-03-02T03:59:27.744Z,4.40
2024-03-02T04:02:29.772Z,4.50
2024-03-02T04:05:31.712Z,4.50
2024-03-02T04:08:33.709Z,4.60
2024-03-02T04:11:35.674Z,4.40
2024-03-02T04:14:37.636Z,4.50
2024-03-02T04:17:39.659Z,4.40
2024-03-02T04:20:41.722Z,3.90
2024-03-02T04:23:43.648Z,3.90
2024-03-02T04:26:45.647Z,4.20
2024-03-02T04:29:48.309Z,4.30
2024-03-02T04:32:50.342Z,4.30
2024-03-02T04:35:52.381Z,4.30
2024-03-02T04:38:54.584Z,4.40
2024-03-02T04:41:56.700Z,4.10
2024-03-02T04:44:58.683Z,4.40
2024-03-02T04:48:00.681Z,4.40
2024-03-02T04:51:02.738Z,4.40
2024-03-02T04:54:04.707Z,4.40
2024-03-02T04:57:06.700Z,4.60
2024-03-02T05:00:09.314Z,4.40
2024-03-02T05:03:11.290Z,4.30
2024-03-02T05:06:13.473Z,4.30
2024-03-02T05:09:15.452Z,4.00
2024-03-02T05:12:17.472Z,4.10
2024-03-02T05:15:19.607Z,3.90
2024-03-02T05:18:21.690Z,3.80
2024-03-02T05:21:23.734Z,3.70
2024-03-02T05:24:25.947Z,3.40
2024-03-02T05:27:31.499Z,3.30
2024-03-02T05:30:33.590Z,3.40
2024-03-02T05:33:35.693Z,3.60
2024-03-02T05:36:37.863Z,3.70
2024-03-02T05:39:39.860Z,3.30
2024-03-02T05:42:41.939Z,3.40
2024-03-02T05:45:43.931Z,3.40
2024-03-02T05:48:45.988Z,3.40
2024-03-02T05:51:48.074Z,3.50
2024-03-02T05:54:50.122Z,3.60
2024-03-02T05:57:52.277Z,3.30
2024-03-02T06:00:54.403Z,3.20
2024-03-02T06:03:57.581Z,3.10
2024-03-02T06:06:59.623Z,3.30
2024-03-02T06:10:01.908Z,3.00
2024-03-02T06:13:04.067Z,3.60
2024-03-02T06:16:06.568Z,3.60
2024-03-02T06:19:09.112Z,3.40
2024-03-02T06:22:11.762Z,3.60
2024-03-02T06:25:13.925Z,3.50
2024-03-02T06:28:15.938Z,3.60
2024-03-02T06:31:17.943Z,3.60
2024-03-02T06:34:19.919Z,3.70
2024-03-02T06:37:21.946Z,3.90
2024-03-02T06:40:23.966Z,3.90
2024-03-02T06:43:26.587Z,3.80
2024-03-02T06:46:28.601Z,3.80
2024-03-02T06:49:30.714Z,3.80
2024-03-02T06:52:32.654Z,3.60
2024-03-02T06:55:35.253Z,3.60
2024-03-02T06:58:37.383Z,3.40
2024-03-02T07:01:39.472Z,3.80
2024-03-02T07:04:41.463Z,3.40
2024-03-02T07:07:43.497Z,3.80
2024-03-02T07:10:45.823Z,3.70
2024-03-02T07:13:48.262Z,3.80
2024-03-02T07:16:50.256Z,3.90
2024-03-02T07:19:55.062Z,4.70
2024-03-02T07:22:57.890Z,5.00
2024-03-02T07:29:04.753Z,6.20
2024-03-02T07:32:07.509Z,6.70
2024-03-02T07:35:09.666Z,7.70
2024-03-02T07:38:11.796Z,8.40
2024-03-02T07:41:14.212Z,8.70
2024-03-02T07:44:16.477Z,9.10
2024-03-02T07:47:18.698Z,9.80
2024-03-02T07:50:20.700Z,9.80
2024-03-02T07:53:22.647Z,10.10
2024-03-02T07:56:24.674Z,10.70
2024-03-02T07:59:26.790Z,11.20
2024-03-02T08:02:28.857Z,11.80
2024-03-02T08:05:31.138Z,11.90
2024-03-02T08:08:33.302Z,12.10
2024-03-02T08:11:35.350Z,12.40
2024-03-02T08:14:37.405Z,12.90
2024-03-02T08:17:40.258Z,12.90
2024-03-02T08:20:42.459Z,13.40
2024-03-02T08:23:45.204Z,13.70
2024-03-02T08:26:48.541Z,14.10
2024-03-02T08:29:50.537Z,14.40
2024-03-02T08:32:53.355Z,14.60
2024-03-02T08:35:55.362Z,14.80
2024-03-02T08:38:57.374Z,15.50
2024-03-02T08:42:00.100Z,15.50
2024-03-02T08:45:02.445Z,15.80
2024-03-02T08:48:04.940Z,16.10
2024-03-02T08:51:06.998Z,16.30
2024-03-02T08:54:09.606Z,16.60
2024-03-02T08:57:11.929Z,16.80
2024-03-02T09:00:14.168Z,16.80
2024-03-02T09:03:16.223Z,16.60
2024-03-02T09:06:19.020Z,16.60
2024-03-02T09:09:21.302Z,17.00
2024-03-02T09:12:23.415Z,16.70
2024-03-02T09:15:25.504Z,16.80
2024-03-02T09:18:27.525Z,16.30
2024-03-02T09:21:29.456Z,16.20
2024-03-02T09:24:31.700Z,15.90
2024-03-02T09:27:33.898Z,16.10
2024-03-02T09:30:36.036Z,16.10
2024-03-02T09:33:38.147Z,16.20
2024-03-02T09:36:40.225Z,16.70
2024-03-02T09:39:45.127Z,16.10
2024-03-02T09:42:47.915Z,16.40
2024-03-02T09:45:52.751Z,16.80
2024-03-02T09:48:54.841Z,16.20
2024-03-02T09:51:57.510Z,16.50
2024-03-02T09:54:59.507Z,16.90
2024-03-02T09:58:01.501Z,16.80
2024-03-02T10:01:06.940Z,16.80
2024-03-02T10:04:09.706Z,17.50
2024-03-02T10:07:16.352Z,17.00
2024-03-02T10:10:18.428Z,17.70
2024-03-02T10:13:20.433Z,17.70
2024-03-02T10:16:22.426Z,17.80
2024-03-02T10:19:25.318Z,17.40
2024-03-02T10:22:27.286Z,17.30
2024-03-02T10:28:47.822Z,17.60
2024-03-02T10:31:49.987Z,17.80
2024-03-02T10:34:52.026Z,17.70
2024-03-02T10:37:55.022Z,17.80
2024-03-02T10:40:59.159Z,17.80
2024-03-02T10:44:04.203Z,17.30
2024-03-02T10:47:07.000Z,18.20
2024-03-02T10:50:09.532Z,18.20
2024-03-02T10:53:11.774Z,18.10
2024-03-02T10:56:22.671Z,17.90
2024-03-02T10:59:28.521Z,17.70
2024-03-02T11:02:33.831Z,18.00
2024-03-02T11:05:39.882Z,17.70
2024-03-02T11:08:44.234Z,18.00
2024-03-02T11:11:50.991Z,17.90
2024-03-02T11:14:53.139Z,18.10
2024-03-02T11:17:55.712Z,18.10
2024-03-02T11:20:58.324Z,18.10
2024-03-02T11:24:00.373Z,18.90
2024-03-02T11:27:04.319Z,18.70
2024-03-02T11:30:09.099Z,18.10
2024-03-02T11:33:13.081Z,17.90
2024-03-02T11:36:17.165Z,18.00
2024-03-02T11:39:19.798Z,17.70
2024-03-02T11:42:21.862Z,17.60
2024-03-02T11:45:25.419Z,17.60
2024-03-02T11:48:27.921Z,17.80
2024-03-02T12:03:27.482Z,18.20
2024-03-02T12:06:30.551Z,17.90
2024-03-02T12:09:32.612Z,18.20
2024-03-02T12:12:34.587Z,18.00
2024-03-02T12:15:39.237Z,18.40
2024-03-02T12:18:43.393Z,18.30
2024-03-02T12:21:45.457Z,18.20
2024-03-02T12:24:48.061Z,18.70
2024-03-02T12:27:56.311Z,18.40
2024-03-02T12:30:58.954Z,18.50
2024-03-02T12:34:01.250Z,18.40
2024-03-02T12:37:03.327Z,18.40
2024-03-02T12:40:05.896Z,17.90
2024-03-02T12:43:08.077Z,17.70
2024-03-02T12:46:10.241Z,17.70
2024-03-02T12:49:14.624Z,18.10
2024-03-02T12:52:17.063Z,18.00
2024-03-02T12:55:22.645Z,18.20
2024-03-02T12:58:25.004Z,18.40
2024-03-02T13:01:27.384Z,18.70
2024-03-02T13:04:30.028Z,18.20
2024-03-02T13:07:32.130Z,18.50
2024-03-02T13:10:35.118Z,18.40
2024-03-02T13:13:37.187Z,18.10
2024-03-02T13:16:47.494Z,18.30
2024-03-02T13:19:58.610Z,18.40
2024-03-02T13:23:00.597Z,18.30
2024-03-02T13:26:03.006Z,18.10
2024-03-02T13:29:05.041Z,18.00
2024-03-02T13:32:07.238Z,18.10
2024-03-02T13:35:09.168Z,18.30
2024-03-02T13:38:11.231Z,18.20
2024-03-02T13:41:13.263Z,18.10
2024-03-02T13:44:15.244Z,17.90
2024-03-02T13:47:17.219Z,18.00
2024-03-02T13:50:20.083Z,17.80
2024-03-02T13:53:22.645Z,18.00
2024-03-02T13:56:24.938Z,17.90
2024-03-02T13:59:27.318Z,18.00
2024-03-02T14:02:29.322Z,17.90
2024-03-02T14:05:31.310Z,17.80
2024-03-02T14:08:33.259Z,17.90
2024-03-02T14:11:35.757Z,17.80
2024-03-02T14:14:37.692Z,17.70
2024-03-02T14:17:40.314Z,17.60
2024-03-02T14:20:43.205Z,17.70
2024-03-02T14:23:45.251Z,17.70
2024-03-02T14:26:47.248Z,17.70
2024-03-02T14:29:49.430Z,17.80
2024-03-02T14:32:51.570Z,17.70
2024-03-02T14:35:53.792Z,17.50
2024-03-02T14:38:56.046Z,17.40
2024-03-02T14:41:57.959Z,17.40
2024-03-02T14:44:59.910Z,17.30
2024-03-02T14:48:02.221Z,17.20
2024-03-02T14:51:04.291Z,17.20
2024-03-02T14:54:06.638Z,17.10
2024-03-02T14:57:08.530Z,17.00
2024-03-02T15:00:11.141Z,17.00
2024-03-02T15:03:13.374Z,17.00
2024-03-02T15:06:15.429Z,16.90
2024-03-02T15:09:17.402Z,16.90
2024-03-02T15:12:19.486Z,16.90
2024-03-02T15:15:21.494Z,16.80
2024-03-02T15:18:23.605Z,16.80
2024-03-02T15:21:25.820Z,16.80
2024-03-02T15:24:27.951Z,16.60
2024-03-02T15:27:30.141Z,16.70
2024-03-02T15:30:32.398Z,16.70
2024-03-02T15:33:34.911Z,16.60
2024-03-02T15:36:36.953Z,16.50
2024-03-02T15:39:39.209Z,16.50
2024-03-02T15:42:41.286Z,16.50
2024-03-02T15:45:43.614Z,16.40
2024-03-02T15:48:45.677Z,16.40
2024-03-02T15:51:47.803Z,16.40
2024-03-02T15:54:50.696Z,16.30
2024-03-02T15:57:53.122Z,16.30
2024-03-02T16:00:55.286Z,16.20
2024-03-02T16:03:57.563Z,16.20
2024-03-02T16:06:59.643Z,16.10
2024-03-02T16:10:01.892Z,16.00
2024-03-02T16:13:03.956Z,16.00
2024-03-02T16:16:06.380Z,15.90
2024-03-02T16:19:16.603Z,15.90
2024-03-02T16:22:24.194Z,15.90
2024-03-02T16:25:26.362Z,15.80
2024-03-02T16:28:28.437Z,15.70
2024-03-02T16:31:30.439Z,15.60
2024-03-02T16:34:32.458Z,15.60
2024-03-02T16:37:34.560Z,15.40
2024-03-02T16:40:36.609Z,15.40
2024-03-02T16:43:38.979Z,15.40
2024-03-02T16:46:41.265Z,15.40
2024-03-02T16:49:46.259Z,15.40
2024-03-02T16:52:48.220Z,15.40
2024-03-02T16:55:50.230Z,15.20
2024-03-02T16:58:52.580Z,15.10
2024-03-02T17:01:54.701Z,15.10
2024-03-02T17:04:56.736Z,15.10
2024-03-02T17:07:58.698Z,15.10
2024-03-02T17:11:00.877Z,15.00
2024-03-02T17:14:02.910Z,14.90
2024-03-02T17:17:05.137Z,14.90
2024-03-02T17:20:07.892Z,14.90
2024-03-02T17:23:10.021Z,14.90
2024-03-02T17:26:12.054Z,14.90
2024-03-02T17:29:14.025Z,14.90
2024-03-02T17:32:16.068Z,14.90
2024-03-02T17:35:18.085Z,14.90
2024-03-02T17:38:20.319Z,14.90
2024-03-02T17:41:22.522Z,14.90
2024-03-02T17:44:24.615Z,14.80
2024-03-02T17:47:26.691Z,14.70
2024-03-02T17:50:30.326Z,14.80
2024-03-02T17:53:32.386Z,14.60
2024-03-02T17:56:34.619Z,14.60
2024-03-02T17:59:36.622Z,14.50
2024-03-02T18:02:38.753Z,14.40
2024-03-02T18:05:40.793Z,14.40
2024-03-02T18:08:43.196Z,14.40
2024-03-02T18:11:45.288Z,14.40
2024-03-02T18:14:47.572Z,14.40
2024-03-02T18:17:49.533Z,14.40
2024-03-02T18:20:51.617Z,14.40
2024-03-02T18:23:53.692Z,14.40
2024-03-02T18:26:56.158Z,14.40
2024-03-02T18:29:58.272Z,14.40
2024-03-02T18:33:00.289Z,14.50
2024-03-02T18:36:02.547Z,14.50
2024-03-02T18:39:04.602Z,14.40
2024-03-02T18:42:06.739Z,14.40
2024-03-02T18:45:08.924Z,14.40
2024-03-02T18:48:11.097Z,14.20
2024-03-02T18:51:13.422Z,14.10
2024-03-02T18:54:15.506Z,14.00
2024-03-02T18:57:17.679Z,14.00
2024-03-02T19:00:20.152Z,14.00
2024-03-02T19:03:22.058Z,13.90
2024-03-02T19:06:24.142Z,13.90
2024-03-02T19:09:26.143Z,13.80
2024-03-02T19:12:28.178Z,13.90
2024-03-02T19:15:30.378Z,13.90
2024-03-02T19:18:32.513Z,13.90
2024-03-02T19:21:34.534Z,14.00
2024-03-02T19:24:38.365Z,14.00
2024-03-02T19:30:56.827Z,14.00
2024-03-02T19:33:59.683Z,14.00
2024-03-02T19:37:02.560Z,14.00
2024-03-02T19:40:07.027Z,14.00
2024-03-02T19:43:09.620Z,14.00
2024-03-02T19:46:12.659Z,13.80
2024-03-02T19:49:15.927Z,13.80
2024-03-02T19:52:18.186Z,13.70
2024-03-02T19:55:22.956Z,13.80
2024-03-02T19:58:25.172Z,13.80
2024-03-02T20:01:27.764Z,13.80
2024-03-02T20:04:29.777Z,13.70
2024-03-02T20:07:32.189Z,13.70
2024-03-02T20:10:34.870Z,13.60
2024-03-02T20:13:37.157Z,13.60
2024-03-02T20:16:43.507Z,13.60
2024-03-02T20:19:45.482Z,13.50
2024-03-02T20:22:52.382Z,13.60
2024-03-02T20:26:00.949Z,13.60
2024-03-02T20:29:03.258Z,13.70
2024-03-02T20:32:05.808Z,13.60
2024-03-02T20:35:15.632Z,13.60
2024-03-02T20:38:18.159Z,13.40
2024-03-02T20:41:22.856Z,13.50
2024-03-02T20:44:26.901Z,13.40
2024-03-02T20:47:29.612Z,13.40
2024-03-02T20:50:34.360Z,13.40
2024-03-02T20:53:37.103Z,13.40
2024-03-02T20:56:39.242Z,13.40
2024-03-02T20:59:42.779Z,13.40
2024-03-02T21:02:46.026Z,13.40
2024-03-02T21:05:48.600Z,13.40
2024-03-02T21:08:50.767Z,13.30
2024-03-02T21:11:52.931Z,13.30
2024-03-02T21:14:55.396Z,13.40
2024-03-02T21:17:57.625Z,13.40
2024-03-02T21:20:59.984Z,13.20
2024-03-02T21:24:02.622Z,13.10
2024-03-02T21:27:06.739Z,13.00
2024-03-02T21:30:11.158Z,13.10
2024-03-02T21:33:14.764Z,13.00
2024-03-02T21:36:19.263Z,13.00
2024-03-02T21:39:32.034Z,13.00
2024-03-02T21:42:43.609Z,13.00
2024-03-02T21:45:47.138Z,12.90
2024-03-02T21:48:50.928Z,13.00
2024-03-02T21:51:55.792Z,12.90
2024-03-02T21:54:59.727Z,12.90
2024-03-02T21:58:06.376Z,12.90
2024-03-02T22:01:14.758Z,12.90
2024-03-02T22:04:18.300Z,12.90
2024-03-02T22:07:20.527Z,12.90
2024-03-02T22:10:23.809Z,12.80
2024-03-02T22:13:27.153Z,12.80
2024-03-02T22:16:29.366Z,12.80
2024-03-02T22:19:35.828Z,12.80
2024-03-02T22:22:39.131Z,12.90
2024-03-02T22:25:41.738Z,12.70
2024-03-02T22:28:44.316Z,12.80
2024-03-02T22:31:46.243Z,12.70
2024-03-02T22:34:48.255Z,12.50
2024-03-02T22:37:50.472Z,12.50
2024-03-02T22:40:52.434Z,12.50
2024-03-02T22:43:54.494Z,12.50
2024-03-02T22:46:56.741Z,12.40
2024-03-02T22:49:59.248Z,12.50
2024-03-02T22:53:01.329Z,12.60
2024-03-02T22:56:04.525Z,12.50
2024-03-02T22:59:06.816Z,12.50
2024-03-02T23:02:09.097Z,12.60
2024-03-02T23:05:11.528Z,12.60
2024-03-02T23:08:13.804Z,12.60
2024-03-02T23:11:16.051Z,12.70
2024-03-02T23:14:18.703Z,12.50
2024-03-02T23:17:20.889Z,12.60
2024-03-02T23:20:23.394Z,12.50
2024-03-02T23:23:25.605Z,12.40
2024-03-02T23:26:27.785Z,12.40
2024-03-02T23:29:30.206Z,12.40
2024-03-02T23:32:32.401Z,12.20
2024-03-02T23:35:34.715Z,12.20
2024-03-02T23:38:36.938Z,12.20
2024-03-02T23:41:39.125Z,12.00
2024-03-02T23:44:41.241Z,11.90
2024-03-02T23:47:43.639Z,11.90
2024-03-02T23:50:46.079Z,11.90
2024-03-02T23:53:48.223Z,12.00
2024-03-02T23:56:50.448Z,11.90
2024-03-02T23:59:52.875Z,11.90
